createdAt,value
2023-03-22T00:00:59.270Z,8.062
2023-03-22T00:03:58.274Z,8.062
2023-03-22T00:06:58.279Z,8.062
2023-03-22T00:10:00.235Z,8.062
2023-03-22T00:12:58.701Z,8.062
2023-03-22T00:15:58.083Z,8.062
2023-03-22T00:18:58.398Z,8.062
2023-03-22T00:21:57.826Z,8.062
2023-03-22T00:24:59.437Z,8.062
2023-03-22T00:27:58.557Z,8.062
2023-03-22T00:30:58.318Z,8.062
2023-03-22T00:33:58.286Z,8.062
2023-03-22T00:36:58.999Z,8.062
2023-03-22T00:39:58.904Z,8.062
2023-03-22T00:42:58.593Z,8.062
2023-03-22T00:45:58.792Z,8.062
2023-03-22T00:48:59.807Z,8.062
2023-03-22T00:51:58.166Z,8.062
2023-03-22T00:54:58.448Z,8.0
2023-03-22T00:57:59.196Z,8.0
2023-03-22T01:00:59.297Z,8.0
2023-03-22T01:03:59.824Z,8.0
2023-03-22T01:06:59.251Z,8.0
2023-03-22T01:09:58.556Z,8.0
2023-03-22T01:12:58.416Z,8.0
2023-03-22T01:15:58.214Z,8.0
2023-03-22T01:18:58.589Z,8.0
2023-03-22T01:21:58.684Z,8.0
2023-03-22T01:24:59.532Z,8.0
2023-03-22T01:27:57.971Z,8.0
2023-03-22T01:30:58.795Z,8.0
2023-03-22T01:33:57.793Z,8.0
2023-03-22T01:36:58.692Z,8.0
2023-03-22T01:39:57.796Z,8.0
2023-03-22T01:42:58.453Z,8.0
2023-03-22T01:45:58.461Z,8.0
2023-03-22T01:48:59.148Z,8.0
2023-03-22T01:51:58.823Z,8.0
2023-03-22T01:54:58.970Z,7.937
2023-03-22T01:57:59.593Z,8.0
2023-03-22T02:00:59.248Z,8.0
2023-03-22T02:03:59.807Z,7.937
2023-03-22T02:06:58.511Z,7.937
2023-03-22T02:09:58.321Z,7.937
2023-03-22T02:12:58.794Z,8.0
2023-03-22T02:15:58.971Z,7.937
2023-03-22T02:18:58.980Z,7.937
2023-03-22T02:21:58.987Z,7.937
2023-03-22T02:24:59.728Z,7.937
2023-03-22T02:27:59.516Z,7.937
2023-03-22T02:30:58.801Z,7.937
2023-03-22T02:33:58.839Z,7.937
2023-03-22T02:36:59.025Z,7.937
2023-03-22T02:39:58.819Z,7.937
2023-03-22T02:42:58.505Z,7.937
2023-03-22T02:45:58.557Z,7.937
2023-03-22T02:48:58.717Z,7.937
2023-03-22T02:51:59.038Z,7.937
2023-03-22T02:54:59.070Z,7.875
2023-03-22T02:57:58.707Z,7.875
2023-03-22T03:00:59.003Z,7.937
2023-03-22T03:03:58.398Z,7.875
2023-03-22T03:06:58.974Z,7.875
2023-03-22T03:09:59.075Z,7.875
2023-03-22T03:12:58.241Z,7.875
2023-03-22T03:15:59.232Z,7.875
2023-03-22T03:18:59.197Z,7.875
2023-03-22T03:22:00.011Z,7.875
2023-03-22T03:24:57.824Z,7.875
2023-03-22T03:27:58.177Z,7.875
2023-03-22T03:30:57.976Z,7.875
2023-03-22T03:33:58.479Z,7.875
2023-03-22T03:36:59.490Z,7.875
2023-03-22T03:39:58.081Z,7.875
2023-03-22T03:42:58.582Z,7.875
2023-03-22T03:45:58.775Z,7.875
2023-03-22T03:48:58.402Z,7.812
2023-03-22T03:51:59.116Z,7.812
2023-03-22T03:54:58.781Z,7.812
2023-03-22T03:57:58.971Z,7.812
2023-03-22T04:00:58.701Z,7.812
2023-03-22T04:03:58.044Z,7.812
2023-03-22T04:06:59.524Z,7.812
2023-03-22T04:10:00.344Z,7.812
2023-03-22T04:12:59.234Z,7.812
2023-03-22T04:15:59.879Z,7.812
2023-03-22T04:18:59.723Z,7.812
2023-03-22T04:21:57.734Z,7.812
2023-03-22T04:24:59.493Z,7.812
2023-03-22T04:27:59.278Z,7.75
2023-03-22T04:30:57.368Z,7.75
2023-03-22T04:33:58.888Z,7.75
2023-03-22T04:36:58.802Z,7.75
2023-03-22T04:39:58.157Z,7.75
2023-03-22T04:42:58.967Z,7.75
2023-03-22T04:45:58.325Z,7.75
2023-03-22T04:48:59.066Z,7.75
2023-03-22T04:51:57.914Z,7.75
2023-03-22T04:54:59.432Z,7.75
2023-03-22T04:57:58.734Z,7.75
2023-03-22T05:00:57.989Z,7.75
2023-03-22T05:03:58.192Z,7.75
2023-03-22T05:06:59.914Z,7.687
2023-03-22T05:09:59.162Z,7.75
2023-03-22T05:12:59.433Z,7.687
2023-03-22T05:15:59.213Z,7.687
2023-03-22T05:18:58.504Z,7.687
2023-03-22T05:22:00.100Z,7.687
2023-03-22T05:24:59.394Z,7.687
2023-03-22T05:27:57.888Z,7.687
2023-03-22T05:30:59.331Z,7.687
2023-03-22T05:33:58.267Z,7.687
2023-03-22T05:36:58.871Z,7.687
2023-03-22T05:39:58.897Z,7.687
2023-03-22T05:42:58.772Z,7.687
2023-03-22T05:45:58.923Z,7.687
2023-03-22T05:48:57.821Z,7.625
2023-03-22T05:51:58.224Z,7.625
2023-03-22T05:54:58.273Z,7.625
2023-03-22T05:57:59.502Z,7.625
2023-03-22T06:00:58.975Z,7.625
2023-03-22T06:03:58.799Z,7.625
2023-03-22T06:06:59.397Z,7.625
2023-03-22T06:09:59.697Z,7.625
2023-03-22T06:12:59.920Z,7.625
2023-03-22T06:15:59.050Z,7.625
2023-03-22T06:18:57.927Z,7.625
2023-03-22T06:21:59.111Z,7.625
2023-03-22T06:24:59.824Z,7.625
2023-03-22T06:27:58.814Z,7.625
2023-03-22T06:30:58.354Z,7.562
2023-03-22T06:33:57.795Z,7.562
2023-03-22T06:36:58.671Z,7.562
2023-03-22T06:39:59.372Z,7.562
2023-03-22T06:43:01.623Z,7.562
2023-03-22T06:46:00.234Z,7.562
2023-03-22T06:48:59.103Z,7.562
2023-03-22T06:51:59.795Z,7.562
2023-03-22T06:54:59.146Z,7.562
2023-03-22T06:57:59.015Z,7.562
2023-03-22T07:00:59.452Z,7.562
2023-03-22T07:03:57.607Z,7.562
2023-03-22T07:06:58.672Z,7.562
2023-03-22T07:09:59.135Z,7.562
2023-03-22T07:13:00.216Z,7.562
2023-03-22T07:15:59.448Z,7.562
2023-03-22T07:18:58.036Z,7.562
2023-03-22T07:21:58.519Z,7.562
2023-03-22T07:24:59.379Z,7.5
2023-03-22T07:27:59.714Z,7.5
2023-03-22T07:30:57.795Z,7.5
2023-03-22T07:33:58.436Z,7.5
2023-03-22T07:37:00.240Z,7.5
2023-03-22T07:39:59.029Z,7.5
2023-03-22T07:42:59.359Z,7.5
2023-03-22T07:45:57.817Z,7.5
2023-03-22T07:48:59.579Z,7.5
2023-03-22T07:51:57.888Z,7.5
2023-03-22T07:54:59.067Z,7.5
2023-03-22T07:57:57.896Z,7.5
2023-03-22T08:00:59.780Z,7.5
2023-03-22T08:03:57.856Z,7.5
2023-03-22T08:06:58.519Z,7.5
2023-03-22T08:09:59.350Z,7.5
2023-03-22T08:12:59.824Z,7.437
2023-03-22T08:15:59.138Z,7.5
2023-03-22T08:18:59.164Z,7.437
2023-03-22T08:21:58.491Z,7.437
2023-03-22T08:24:58.466Z,7.437
2023-03-22T08:27:59.193Z,7.437
2023-03-22T08:30:59.853Z,7.437
2023-03-22T08:33:58.898Z,7.437
2023-03-22T08:36:59.556Z,7.5
2023-03-22T08:39:58.730Z,7.437
2023-03-22T08:42:58.960Z,7.437
2023-03-22T08:45:58.747Z,7.437
2023-03-22T08:48:59.115Z,7.437
2023-03-22T08:51:58.353Z,7.437
2023-03-22T08:54:58.173Z,7.437
2023-03-22T08:57:58.940Z,7.437
2023-03-22T09:00:59.780Z,7.437
2023-03-22T09:04:00.088Z,7.437
2023-03-22T09:06:58.410Z,7.437
2023-03-22T09:09:59.444Z,7.437
2023-03-22T09:12:58.339Z,7.437
2023-03-22T09:15:58.946Z,7.437
2023-03-22T09:18:59.561Z,7.437
2023-03-22T09:21:57.501Z,7.437
2023-03-22T09:24:59.110Z,7.437
2023-03-22T09:27:58.291Z,7.5
2023-03-22T09:30:58.986Z,7.437
2023-03-22T09:33:57.840Z,7.5
2023-03-22T09:36:58.915Z,7.437
2023-03-22T09:39:58.123Z,7.5
2023-03-22T09:42:58.870Z,7.437
2023-03-22T09:46:00.365Z,7.5
2023-03-22T09:48:59.630Z,7.5
2023-03-22T09:51:59.193Z,7.5
2023-03-22T09:54:59.142Z,7.5
2023-03-22T09:57:58.538Z,7.5
2023-03-22T10:01:00.056Z,7.5
2023-03-22T10:03:58.445Z,7.5
2023-03-22T10:06:58.720Z,7.5
2023-03-22T10:09:58.962Z,7.5
2023-03-22T10:12:57.486Z,7.5
2023-03-22T10:15:58.589Z,7.5
2023-03-22T10:18:59.314Z,7.5
2023-03-22T10:21:59.056Z,7.5
2023-03-22T10:24:57.971Z,7.5
2023-03-22T10:27:59.271Z,7.5
2023-03-22T10:30:59.930Z,7.5
2023-03-22T10:33:58.840Z,7.5
2023-03-22T10:37:00.800Z,7.5
2023-03-22T10:39:58.226Z,7.5
2023-03-22T10:42:58.752Z,7.5
2023-03-22T10:45:59.469Z,7.5
2023-03-22T10:48:58.046Z,7.5
2023-03-22T10:51:58.506Z,7.5
2023-03-22T10:55:02.987Z,7.5
2023-03-22T10:57:57.887Z,7.5
2023-03-22T11:00:58.350Z,7.562
2023-03-22T11:04:16.372Z,7.562
2023-03-22T11:07:00.206Z,7.562
2023-03-22T11:09:59.503Z,7.562
2023-03-22T11:12:59.459Z,7.562
2023-03-22T11:15:57.512Z,7.562
2023-03-22T11:18:58.163Z,7.562
2023-03-22T11:21:59.270Z,7.562
2023-03-22T11:24:57.832Z,7.562
2023-03-22T11:27:58.880Z,7.562
2023-03-22T11:30:58.878Z,7.562
2023-03-22T11:33:58.689Z,7.562
2023-03-22T11:36:59.163Z,7.562
2023-03-22T11:40:00.012Z,7.562
2023-03-22T11:42:59.150Z,7.562
2023-03-22T11:45:58.630Z,7.562
2023-03-22T11:49:01.107Z,7.625
2023-03-22T11:51:59.539Z,7.625
2023-03-22T11:54:59.026Z,7.625
2023-03-22T11:57:59.330Z,7.625
2023-03-22T12:01:00.491Z,7.625
2023-03-22T12:03:58.980Z,7.625
2023-03-22T12:06:58.755Z,7.625
2023-03-22T12:10:00.167Z,7.625
2023-03-22T12:12:58.213Z,7.625
2023-03-22T12:15:59.470Z,7.625
2023-03-22T12:18:57.538Z,7.625
2023-03-22T12:21:58.538Z,7.687
2023-03-22T12:24:59.304Z,7.687
2023-03-22T12:27:57.622Z,7.687
2023-03-22T12:30:58.756Z,7.687
2023-03-22T12:33:59.207Z,7.687
2023-03-22T12:36:59.017Z,7.687
2023-03-22T12:39:58.062Z,7.687
2023-03-22T12:43:00.503Z,7.75
2023-03-22T12:45:59.117Z,7.75
2023-03-22T12:48:58.437Z,7.75
2023-03-22T12:51:58.358Z,7.75
2023-03-22T12:54:58.818Z,7.75
2023-03-22T12:57:58.347Z,7.75
2023-03-22T13:00:59.863Z,7.812
2023-03-22T13:03:58.695Z,7.812
2023-03-22T13:06:59.118Z,7.812
2023-03-22T13:09:58.992Z,7.812
2023-03-22T13:12:58.446Z,7.875
2023-03-22T13:15:58.541Z,7.875
2023-03-22T13:18:57.429Z,7.875
2023-03-22T13:21:59.645Z,7.875
2023-03-22T13:24:59.756Z,7.875
2023-03-22T13:27:58.375Z,7.875
2023-03-22T13:30:59.464Z,7.937
2023-03-22T13:33:58.078Z,7.937
2023-03-22T13:36:59.554Z,7.937
2023-03-22T13:39:59.569Z,7.937
2023-03-22T13:42:57.745Z,7.937
2023-03-22T13:45:58.105Z,7.937
2023-03-22T13:49:00.955Z,8.0
2023-03-22T13:52:00.127Z,8.0
2023-03-22T13:54:57.574Z,8.0
2023-03-22T13:57:59.309Z,8.0
2023-03-22T14:01:00.197Z,8.062
2023-03-22T14:03:58.055Z,8.062
2023-03-22T14:06:59.212Z,8.062
2023-03-22T14:09:59.291Z,8.062
2023-03-22T14:12:58.754Z,8.062
2023-03-22T14:15:58.832Z,8.062
2023-03-22T14:18:59.471Z,8.125
2023-03-22T14:51:59.070Z,8.25
2023-03-22T14:54:57.879Z,8.25
2023-03-22T14:57:59.477Z,8.25
2023-03-22T15:01:00.358Z,8.312
2023-03-22T15:03:58.031Z,8.312
2023-03-22T15:06:58.309Z,8.312
2023-03-22T15:09:58.107Z,8.312
2023-03-22T15:12:59.451Z,8.375
2023-03-22T15:15:59.797Z,8.375
2023-03-22T15:18:57.913Z,8.375
2023-03-22T15:21:58.875Z,8.375
2023-03-22T15:24:59.188Z,8.375
2023-03-22T15:27:58.972Z,8.375
2023-03-22T15:30:59.848Z,8.375
2023-03-22T15:33:59.039Z,8.437
2023-03-22T15:36:58.595Z,8.437
2023-03-22T15:39:59.591Z,8.437
2023-03-22T15:42:58.384Z,8.437
2023-03-22T15:45:59.535Z,8.437
2023-03-22T15:48:57.785Z,8.437
2023-03-22T15:51:59.011Z,8.437
2023-03-22T15:54:59.073Z,8.437
2023-03-22T15:57:58.295Z,8.437
2023-03-22T16:00:59.887Z,8.5
2023-03-22T16:03:59.861Z,8.5
2023-03-22T16:06:59.492Z,8.5
2023-03-22T16:09:58.367Z,8.5
2023-03-22T16:12:58.580Z,8.5
2023-03-22T16:15:58.970Z,8.5
2023-03-22T16:18:58.486Z,8.5
2023-03-22T16:21:58.547Z,8.5
2023-03-22T16:24:57.939Z,8.5
2023-03-22T16:27:58.459Z,8.5
2023-03-22T16:30:58.343Z,8.5
2023-03-22T16:33:59.417Z,8.5
2023-03-22T16:36:58.481Z,8.562
2023-03-22T16:39:59.589Z,8.562
2023-03-22T16:42:58.708Z,8.562
2023-03-22T16:45:58.831Z,8.562
2023-03-22T16:48:58.921Z,8.562
2023-03-22T16:51:58.182Z,8.562
2023-03-22T16:54:58.874Z,8.562
2023-03-22T16:57:58.705Z,8.562
2023-03-22T17:00:59.818Z,8.562
2023-03-22T17:03:59.286Z,8.562
2023-03-22T17:06:59.122Z,8.562
2023-03-22T17:09:58.870Z,8.562
2023-03-22T17:12:59.064Z,8.562
2023-03-22T17:15:58.703Z,8.562
2023-03-22T17:18:59.073Z,8.562
2023-03-22T17:21:59.391Z,8.625
2023-03-22T17:24:58.596Z,8.625
2023-03-22T17:27:59.399Z,8.562
2023-03-22T17:30:58.714Z,8.562
2023-03-22T17:33:59.848Z,8.562
2023-03-22T17:36:59.270Z,8.562
2023-03-22T17:40:27.917Z,8.625
2023-03-22T17:42:58.938Z,8.625
2023-03-22T17:46:38.349Z,8.625
2023-03-22T17:48:58.830Z,8.625
2023-03-22T17:51:59.075Z,8.625
2023-03-22T17:58:24.172Z,8.625
2023-03-22T18:00:58.242Z,8.625
2023-03-22T18:03:59.130Z,8.562
2023-03-22T18:06:59.358Z,8.562
2023-03-22T18:09:58.944Z,8.625
2023-03-22T18:12:58.573Z,8.625
2023-03-22T18:15:58.918Z,8.625
2023-03-22T18:18:59.204Z,8.625
2023-03-22T18:21:57.620Z,8.625
2023-03-22T18:24:59.304Z,8.625
2023-03-22T18:27:58.095Z,8.625
2023-03-22T18:31:00.319Z,8.625
2023-03-22T18:33:58.028Z,8.562
2023-03-22T18:36:58.899Z,8.562
2023-03-22T18:42:59.394Z,8.562
2023-03-22T18:46:02.943Z,8.562
2023-03-22T18:48:59.344Z,8.562
2023-03-22T18:52:34.227Z,8.562
2023-03-22T18:55:15.049Z,8.562
2023-03-22T18:57:58.825Z,8.562
2023-03-22T19:01:27.533Z,8.562
2023-03-22T19:03:59.515Z,8.562
2023-03-22T19:06:58.724Z,8.562
2023-03-22T19:09:59.807Z,8.562
2023-03-22T19:12:59.192Z,8.562
2023-03-22T19:15:59.205Z,8.562
2023-03-22T19:18:58.796Z,8.562
2023-03-22T19:21:59.354Z,8.562
2023-03-22T19:24:58.774Z,8.562
2023-03-22T19:28:03.342Z,8.562
2023-03-22T19:30:59.619Z,8.562
2023-03-22T19:33:59.024Z,8.562
2023-03-22T19:36:58.633Z,8.562
2023-03-22T19:40:51.412Z,8.562
2023-03-22T19:42:59.442Z,8.5
2023-03-22T19:45:59.400Z,8.5
2023-03-22T19:48:59.244Z,8.562
2023-03-22T19:51:59.980Z,8.5
2023-03-22T19:54:59.890Z,8.5
2023-03-22T19:57:58.370Z,8.5
2023-03-22T20:00:59.354Z,8.5
2023-03-22T20:03:59.262Z,8.5
2023-03-22T20:06:57.894Z,8.5
2023-03-22T20:10:01.177Z,8.5
2023-03-22T20:12:59.962Z,8.5
2023-03-22T20:15:59.646Z,8.5
2023-03-22T20:18:59.758Z,8.5
2023-03-22T20:21:59.507Z,8.5
2023-03-22T20:24:59.206Z,8.5
2023-03-22T20:27:58.599Z,8.5
2023-03-22T20:30:58.350Z,8.5
2023-03-22T20:33:58.799Z,8.437
2023-03-22T20:36:59.158Z,8.5
2023-03-22T20:39:58.581Z,8.437
2023-03-22T20:42:58.565Z,8.437
2023-03-22T20:45:58.673Z,8.437
2023-03-22T20:48:59.441Z,8.437
2023-03-22T20:51:58.584Z,8.437
2023-03-22T20:54:58.390Z,8.437
2023-03-22T20:57:59.042Z,8.437
2023-03-22T21:00:58.606Z,8.437
2023-03-22T21:03:58.935Z,8.437
2023-03-22T21:06:59.261Z,8.437
2023-03-22T21:09:59.283Z,8.437
2023-03-22T21:12:59.282Z,8.437
2023-03-22T21:15:58.715Z,8.437
2023-03-22T21:18:59.249Z,8.437
2023-03-22T21:24:58.988Z,8.437
2023-03-22T21:27:59.083Z,8.437
2023-03-22T21:30:59.697Z,8.375
2023-03-22T21:33:59.637Z,8.375
2023-03-22T21:36:58.592Z,8.375
2023-03-22T21:39:58.309Z,8.375
2023-03-22T21:42:59.761Z,8.375
2023-03-22T21:45:58.790Z,8.375
2023-03-22T21:48:58.416Z,8.375
2023-03-22T21:51:59.730Z,8.375
2023-03-22T21:54:59.372Z,8.375
2023-03-22T21:57:57.815Z,8.375
2023-03-22T22:00:59.191Z,8.375
2023-03-22T22:03:58.513Z,8.375
2023-03-22T22:06:58.474Z,8.375
2023-03-22T22:09:59.141Z,8.375
2023-03-22T22:12:58.799Z,8.375
2023-03-22T22:15:59.892Z,8.312
2023-03-22T22:18:58.836Z,8.312
2023-03-22T22:21:58.778Z,8.312
2023-03-22T22:24:57.996Z,8.312
2023-03-22T22:27:58.747Z,8.312
2023-03-22T22:30:58.277Z,8.312
2023-03-22T22:33:58.848Z,8.312
2023-03-22T22:36:58.884Z,8.312
2023-03-22T22:39:57.887Z,8.312
2023-03-22T22:42:58.935Z,8.312
2023-03-22T22:45:58.534Z,8.312
2023-03-22T22:48:58.960Z,8.312
2023-03-22T22:51:58.900Z,8.312
2023-03-22T22:55:00.277Z,8.312
2023-03-22T22:57:58.162Z,8.312
2023-03-22T23:01:00.453Z,8.312
2023-03-22T23:03:58.251Z,8.312
2023-03-22T23:06:58.638Z,8.312
2023-03-22T23:09:59.111Z,8.312
2023-03-22T23:12:58.410Z,8.312
2023-03-22T23:15:59.780Z,8.25
2023-03-22T23:18:57.556Z,8.25
2023-03-22T23:21:58.525Z,8.25
2023-03-22T23:24:58.479Z,8.25
2023-03-22T23:27:59.057Z,8.25
2023-03-22T23:30:59.438Z,8.25
2023-03-22T23:34:00.047Z,8.25
2023-03-22T23:36:58.782Z,8.25
2023-03-22T23:39:58.764Z,8.25
2023-03-22T23:42:58.847Z,8.25
2023-03-22T23:45:58.891Z,8.25
2023-03-22T23:48:59.753Z,8.25
2023-03-22T23:51:58.121Z,8.25
2023-03-22T23:54:58.441Z,8.25
2023-03-22T23:57:59.013Z,8.25
